createdAt,value
2022-10-07T00:00:53.097Z,101962.69
2022-10-07T00:03:21.859Z,101967.31
2022-10-07T00:06:01.465Z,101963.41
2022-10-07T00:08:30.016Z,101965.31
2022-10-07T00:10:58.059Z,101962.34
2022-10-07T00:13:26.095Z,101959.38
2022-10-07T00:15:54.043Z,101958.31
2022-10-07T00:18:21.964Z,101958.31
2022-10-07T00:20:50.051Z,101955.19
2022-10-07T00:23:19.337Z,101956.66
2022-10-07T00:25:47.456Z,101946.25
2022-10-07T00:28:15.497Z,101941.06
2022-10-07T00:30:43.662Z,101949.63
2022-10-07T00:33:11.657Z,101944.78
2022-10-07T00:35:39.612Z,101940.31
2022-10-07T00:38:07.454Z,101936.03
2022-10-07T00:40:36.547Z,101936.97
2022-10-07T00:43:19.298Z,101932.72
2022-10-07T00:45:47.544Z,101930.38
2022-10-07T00:48:16.451Z,101933.31
2022-10-07T00:50:44.601Z,101926.34
2022-10-07T00:53:12.602Z,101919.41
2022-10-07T00:55:43.387Z,101920.97
2022-10-07T00:58:11.836Z,101917.13
2022-10-07T01:00:40.147Z,101916.69
2022-10-07T01:03:08.013Z,101915.09
2022-10-07T01:05:35.840Z,101910.50
2022-10-07T01:08:03.610Z,101910.41
2022-10-07T01:10:34.779Z,101903.53
2022-10-07T01:13:08.556Z,101903.13
2022-10-07T01:15:39.332Z,101898.09
2022-10-07T01:18:10.904Z,101893.16
2022-10-07T01:20:45.103Z,101897.56
2022-10-07T01:23:27.016Z,101894.72
2022-10-07T01:26:04.124Z,101893.66
2022-10-07T01:28:37.674Z,101884.78
2022-10-07T01:31:07.536Z,101890.00
2022-10-07T01:33:36.040Z,101878.59
2022-10-07T01:36:05.683Z,101878.97
2022-10-07T01:38:34.662Z,101869.66
2022-10-07T01:41:04.571Z,101871.09
2022-10-07T01:43:35.201Z,101870.19
2022-10-07T01:46:03.373Z,101863.34
2022-10-07T01:48:32.721Z,101866.31
2022-10-07T01:51:02.149Z,101852.47
2022-10-07T01:53:36.124Z,101849.88
2022-10-07T01:56:13.010Z,101852.22
2022-10-07T01:58:50.958Z,101852.78
2022-10-07T02:01:22.788Z,101852.22
2022-10-07T02:03:57.903Z,101837.63
2022-10-07T02:06:31.191Z,101841.69
2022-10-07T02:09:04.180Z,101836.25
2022-10-07T02:11:33.767Z,101838.84
2022-10-07T02:14:09.187Z,101834.38
2022-10-07T02:16:41.477Z,101835.94
2022-10-07T02:19:12.678Z,101834.66
2022-10-07T02:21:41.799Z,101833.81
2022-10-07T02:24:11.609Z,101824.38
2022-10-07T02:26:41.180Z,101824.47
2022-10-07T02:29:11.517Z,101813.09
2022-10-07T02:31:40.156Z,101816.97
2022-10-07T02:34:09.659Z,101814.69
2022-10-07T02:36:41.177Z,101812.44
2022-10-07T02:39:09.147Z,101809.59
2022-10-07T02:41:41.800Z,101797.78
2022-10-07T02:44:15.520Z,101804.28
2022-10-07T02:46:46.187Z,101797.31
2022-10-07T02:49:18.175Z,101794.91
2022-10-07T02:51:48.178Z,101799.78
2022-10-07T02:54:18.937Z,101792.84
2022-10-07T02:56:48.132Z,101792.25
2022-10-07T02:59:18.900Z,101798.28
2022-10-07T03:01:48.367Z,101798.75
2022-10-07T03:04:16.175Z,101792.59
2022-10-07T03:06:43.936Z,101783.84
2022-10-07T03:09:12.300Z,101787.50
2022-10-07T03:11:40.378Z,101784.63
2022-10-07T03:14:08.135Z,101782.91
2022-10-07T03:16:37.276Z,101777.00
2022-10-07T03:19:05.201Z,101782.91
2022-10-07T03:21:33.933Z,101779.06
2022-10-07T03:24:04.735Z,101775.75
2022-10-07T03:26:33.038Z,101770.78
2022-10-07T03:29:01.246Z,101772.41
2022-10-07T03:31:29.257Z,101761.53
2022-10-07T03:33:59.565Z,101758.41
2022-10-07T03:36:27.346Z,101755.78
2022-10-07T03:38:55.706Z,101759.28
2022-10-07T03:41:24.285Z,101758.13
2022-10-07T03:43:52.061Z,101759.84
2022-10-07T03:46:20.288Z,101758.09
2022-10-07T03:48:48.049Z,101757.28
2022-10-07T03:51:17.347Z,101761.66
2022-10-07T03:53:45.094Z,101752.44
2022-10-07T03:56:12.926Z,101751.34
2022-10-07T03:58:40.704Z,101754.41
2022-10-07T04:01:09.181Z,101755.47
2022-10-07T04:03:37.106Z,101744.59
2022-10-07T04:06:05.023Z,101743.09
2022-10-07T04:08:34.518Z,101744.16
2022-10-07T04:11:02.985Z,101739.94
2022-10-07T04:13:31.676Z,101734.34
2022-10-07T04:15:59.675Z,101741.16
2022-10-07T04:18:27.488Z,101735.78
2022-10-07T04:20:55.836Z,101736.75
2022-10-07T04:23:23.806Z,101731.31
2022-10-07T04:25:53.491Z,101733.94
2022-10-07T04:28:22.508Z,101732.25
2022-10-07T04:30:51.455Z,101721.25
2022-10-07T04:33:19.861Z,101727.63
2022-10-07T04:35:48.625Z,101725.16
2022-10-07T04:38:17.946Z,101729.56
2022-10-07T04:40:49.090Z,101722.47
2022-10-07T04:43:23.382Z,101724.69
2022-10-07T04:45:53.006Z,101731.09
2022-10-07T04:48:21.831Z,101733.34
2022-10-07T04:50:51.791Z,101726.34
2022-10-07T04:53:19.879Z,101724.69
2022-10-07T04:55:48.826Z,101725.75
2022-10-07T04:58:19.084Z,101726.44
2022-10-07T05:00:48.346Z,101718.06
2022-10-07T05:03:16.991Z,101713.13
2022-10-07T05:05:45.880Z,101709.72
2022-10-07T05:08:15.791Z,101711.13
2022-10-07T05:10:43.821Z,101700.41
2022-10-07T05:13:13.094Z,101704.09
2022-10-07T05:15:49.752Z,101701.50
2022-10-07T05:18:18.599Z,101703.59
2022-10-07T05:20:47.549Z,101709.38
2022-10-07T05:23:16.067Z,101702.63
2022-10-07T05:25:44.600Z,101698.63
2022-10-07T05:28:12.741Z,101701.66
2022-10-07T05:30:41.001Z,101689.91
2022-10-07T05:33:10.756Z,101694.41
2022-10-07T05:35:38.563Z,101694.88
2022-10-07T05:38:06.780Z,101687.16
2022-10-07T05:40:34.598Z,101690.81
2022-10-07T05:43:02.542Z,101685.72
2022-10-07T05:45:31.932Z,101697.69
2022-10-07T05:48:00.532Z,101678.94
2022-10-07T05:50:29.677Z,101688.38
2022-10-07T05:52:57.569Z,101675.81
2022-10-07T05:55:25.565Z,101678.63
2022-10-07T05:57:53.312Z,101679.00
2022-10-07T06:00:21.087Z,101668.00
2022-10-07T06:02:48.975Z,101670.13
2022-10-07T06:05:18.858Z,101680.91
2022-10-07T06:07:48.532Z,101670.47
2022-10-07T06:10:33.789Z,101671.81
2022-10-07T06:13:10.550Z,101675.78
2022-10-07T06:15:38.500Z,101668.13
2022-10-07T06:18:06.344Z,101674.72
2022-10-07T06:20:34.962Z,101663.84
2022-10-07T06:23:04.944Z,101666.59
2022-10-07T06:25:33.298Z,101666.34
2022-10-07T06:28:01.791Z,101662.31
2022-10-07T06:30:29.988Z,101653.00
2022-10-07T06:32:57.842Z,101654.91
2022-10-07T06:35:25.608Z,101671.63
2022-10-07T06:37:53.382Z,101649.31
2022-10-07T06:40:22.726Z,101659.41
2022-10-07T06:42:50.511Z,101660.56
2022-10-07T06:45:18.307Z,101660.03
2022-10-07T06:47:46.473Z,101652.69
2022-10-07T06:50:14.668Z,101657.13
2022-10-07T06:52:43.590Z,101643.16
2022-10-07T06:55:11.531Z,101654.81
2022-10-07T06:57:45.750Z,101647.78
2022-10-07T07:00:15.151Z,101650.38
2022-10-07T07:02:43.395Z,101654.38
2022-10-07T07:05:14.886Z,101658.22
2022-10-07T07:07:42.987Z,101656.19
2022-10-07T07:10:11.063Z,101656.72
2022-10-07T07:12:39.029Z,101649.72
2022-10-07T07:15:08.971Z,101653.78
2022-10-07T07:17:36.787Z,101650.38
2022-10-07T07:20:04.981Z,101649.63
2022-10-07T07:22:32.813Z,101646.63
2022-10-07T07:25:00.842Z,101646.19
2022-10-07T07:27:28.753Z,101652.38
2022-10-07T07:29:57.604Z,101658.44
2022-10-07T07:32:27.368Z,101647.72
2022-10-07T07:34:55.680Z,101651.06
2022-10-07T07:37:24.696Z,101646.16
2022-10-07T07:39:52.583Z,101649.66
2022-10-07T07:42:21.787Z,101643.16
2022-10-07T07:44:49.984Z,101644.44
2022-10-07T07:47:17.837Z,101635.00
2022-10-07T07:49:47.454Z,101634.88
2022-10-07T07:52:16.671Z,101620.47
2022-10-07T07:54:44.443Z,101633.78
2022-10-07T07:57:12.570Z,101631.13
2022-10-07T07:59:40.466Z,101628.84
2022-10-07T08:02:08.482Z,101636.63
2022-10-07T08:04:36.762Z,101633.53
2022-10-07T08:07:05.895Z,101641.69
2022-10-07T08:09:33.679Z,101631.81
2022-10-07T08:12:02.135Z,101637.50
2022-10-07T08:14:31.090Z,101632.69
2022-10-07T08:16:59.707Z,101625.31
2022-10-07T08:19:29.563Z,101622.16
2022-10-07T08:21:57.924Z,101628.53
2022-10-07T08:24:27.776Z,101630.44
2022-10-07T08:26:55.933Z,101619.66
2022-10-07T08:29:23.954Z,101631.88
2022-10-07T08:31:52.246Z,101628.56
2022-10-07T08:34:20.041Z,101624.16
2022-10-07T08:36:49.106Z,101624.22
2022-10-07T08:39:17.131Z,101620.56
2022-10-07T08:41:58.276Z,101612.28
2022-10-07T08:44:29.112Z,101612.09
2022-10-07T08:47:03.121Z,101605.22
2022-10-07T08:49:37.199Z,101601.09
2022-10-07T08:52:11.590Z,101596.94
2022-10-07T08:54:40.374Z,101608.13
2022-10-07T08:57:15.463Z,101591.56
2022-10-07T08:59:47.754Z,101593.53
2022-10-07T09:02:22.022Z,101596.00
2022-10-07T09:04:54.820Z,101591.31
2022-10-07T09:07:29.962Z,101581.81
2022-10-07T09:10:01.318Z,101581.22
2022-10-07T09:12:35.722Z,101570.25
2022-10-07T09:15:05.322Z,101574.25
2022-10-07T09:17:38.165Z,101577.44
2022-10-07T09:20:10.051Z,101566.81
2022-10-07T09:22:39.913Z,101570.56
2022-10-07T09:25:19.086Z,101563.28
2022-10-07T09:27:49.008Z,101563.16
2022-10-07T09:30:17.642Z,101560.41
2022-10-07T09:32:46.868Z,101551.63
2022-10-07T09:35:15.893Z,101555.69
2022-10-07T09:37:58.149Z,101549.31
2022-10-07T09:40:34.267Z,101550.63
2022-10-07T09:43:11.033Z,101547.69
2022-10-07T09:45:39.946Z,101538.25
2022-10-07T09:48:17.831Z,101533.97
2022-10-07T09:50:46.701Z,101537.66
2022-10-07T09:53:18.600Z,101533.47
2022-10-07T09:55:46.794Z,101539.53
2022-10-07T09:58:20.587Z,101534.41
2022-10-07T10:00:49.811Z,101532.38
2022-10-07T10:03:18.337Z,101525.13
2022-10-07T10:05:53.944Z,101530.44
2022-10-07T10:08:26.834Z,101537.56
2022-10-07T10:10:55.602Z,101519.94
2022-10-07T10:13:28.070Z,101526.38
2022-10-07T10:15:56.430Z,101527.75
2022-10-07T10:18:32.121Z,101517.94
2022-10-07T10:21:15.790Z,101512.59
2022-10-07T10:23:46.876Z,101517.06
2022-10-07T10:26:32.769Z,101500.03
2022-10-07T10:29:12.415Z,101508.81
2022-10-07T10:31:52.259Z,101495.69
2022-10-07T10:34:25.533Z,101490.84
2022-10-07T10:36:55.844Z,101491.59
2022-10-07T10:39:29.204Z,101490.28
2022-10-07T10:41:58.985Z,101496.66
2022-10-07T10:44:40.495Z,101480.97
2022-10-07T10:47:14.721Z,101469.25
2022-10-07T10:49:46.110Z,101474.97
2022-10-07T10:52:30.971Z,101467.66
2022-10-07T10:55:11.416Z,101465.47
2022-10-07T10:57:44.250Z,101458.91
2022-10-07T11:00:15.953Z,101454.94
2022-10-07T11:03:00.333Z,101452.97
2022-10-07T11:05:31.978Z,101434.53
2022-10-07T11:08:02.234Z,101442.81
2022-10-07T11:10:32.904Z,101429.09
2022-10-07T11:13:02.992Z,101434.03
2022-10-07T11:15:33.608Z,101417.69
2022-10-07T11:18:02.532Z,101427.03
2022-10-07T11:20:33.570Z,101416.03
2022-10-07T11:23:04.101Z,101416.91
2022-10-07T11:25:35.187Z,101411.06
2022-10-07T11:28:09.305Z,101405.63
2022-10-07T11:30:43.936Z,101406.59
2022-10-07T11:33:15.922Z,101396.66
2022-10-07T11:35:48.360Z,101391.66
2022-10-07T11:38:18.394Z,101380.03
2022-10-07T11:40:49.307Z,101376.44
2022-10-07T11:43:19.418Z,101379.69
2022-10-07T11:45:51.965Z,101374.84
2022-10-07T11:48:22.612Z,101360.50
2022-10-07T11:50:54.391Z,101358.88
2022-10-07T11:53:24.026Z,101351.69
2022-10-07T11:55:57.209Z,101352.44
2022-10-07T11:58:26.786Z,101349.03
2022-10-07T12:01:09.459Z,101342.47
2022-10-07T12:03:48.515Z,101339.56
2022-10-07T12:06:16.609Z,101331.44
2022-10-07T12:08:45.272Z,101324.31
2022-10-07T12:11:43.769Z,101322.88
2022-10-07T12:14:31.115Z,101315.84
2022-10-07T12:16:59.122Z,101309.97
2022-10-07T12:19:28.564Z,101307.06
2022-10-07T12:22:15.384Z,101302.28
2022-10-07T12:24:45.808Z,101304.69
2022-10-07T12:27:17.663Z,101298.47
2022-10-07T12:29:50.759Z,101287.44
2022-10-07T12:32:37.515Z,101296.22
2022-10-07T12:35:20.973Z,101289.03
2022-10-07T12:37:51.688Z,101271.59
2022-10-07T12:40:25.828Z,101276.06
2022-10-07T12:42:59.780Z,101276.00
2022-10-07T12:45:28.452Z,101267.66
2022-10-07T12:47:58.426Z,101268.16
2022-10-07T12:50:26.695Z,101261.22
2022-10-07T12:52:58.677Z,101261.31
2022-10-07T12:55:29.820Z,101257.66
2022-10-07T12:58:19.293Z,101243.66
2022-10-07T13:00:52.494Z,101232.69
2022-10-07T13:03:36.075Z,101229.53
2022-10-07T13:06:29.953Z,101229.38
2022-10-07T13:09:13.637Z,101222.72
2022-10-07T13:11:50.390Z,101221.09
2022-10-07T13:14:22.806Z,101221.06
2022-10-07T13:16:56.042Z,101215.97
2022-10-07T13:19:27.744Z,101210.53
2022-10-07T13:22:00.033Z,101208.56
2022-10-07T13:24:29.865Z,101207.16
2022-10-07T13:27:09.424Z,101213.28
2022-10-07T13:29:38.495Z,101191.59
2022-10-07T13:32:07.539Z,101190.53
2022-10-07T13:34:35.496Z,101189.22
2022-10-07T13:37:03.315Z,101175.09
2022-10-07T13:39:32.585Z,101176.53
2022-10-07T13:42:01.357Z,101172.03
2022-10-07T13:44:30.977Z,101167.28
2022-10-07T13:47:01.305Z,101162.78
2022-10-07T13:49:31.428Z,101161.25
2022-10-07T13:52:01.514Z,101146.25
2022-10-07T13:54:31.362Z,101153.63
2022-10-07T13:57:00.979Z,101148.63
2022-10-07T13:59:29.375Z,101145.91
2022-10-07T14:01:58.582Z,101140.53
2022-10-07T14:04:27.200Z,101144.63
2022-10-07T14:06:59.886Z,101139.56
2022-10-07T14:09:36.374Z,101134.25
2022-10-07T14:12:07.768Z,101128.31
2022-10-07T14:14:37.949Z,101124.31
2022-10-07T14:17:10.492Z,101123.22
2022-10-07T14:19:39.409Z,101121.78
2022-10-07T14:22:17.284Z,101118.03
2022-10-07T14:24:52.743Z,101120.06
2022-10-07T14:27:47.986Z,101118.50
2022-10-07T14:30:55.498Z,101106.22
2022-10-07T14:33:43.965Z,101097.31
2022-10-07T14:36:13.020Z,101099.34
2022-10-07T14:38:42.083Z,101102.41
2022-10-07T14:41:10.023Z,101099.50
2022-10-07T14:43:39.176Z,101096.81
2022-10-07T14:46:12.285Z,101089.44
2022-10-07T14:48:40.281Z,101090.59
2022-10-07T14:51:08.111Z,101091.19
2022-10-07T14:53:37.402Z,101085.59
2022-10-07T14:56:05.248Z,101077.59
2022-10-07T14:58:33.241Z,101077.00
2022-10-07T15:01:01.174Z,101074.91
2022-10-07T15:03:30.813Z,101068.31
2022-10-07T15:05:58.573Z,101065.69
2022-10-07T15:08:26.387Z,101064.50
2022-10-07T15:10:54.195Z,101064.28
2022-10-07T15:13:22.197Z,101061.81
2022-10-07T15:15:50.855Z,101064.34
2022-10-07T15:18:18.645Z,101060.28
2022-10-07T15:20:55.086Z,101058.22
2022-10-07T15:23:23.115Z,101057.78
2022-10-07T15:25:52.485Z,101051.25
2022-10-07T15:28:20.347Z,101045.09
2022-10-07T15:30:48.178Z,101047.88
2022-10-07T15:33:16.037Z,101039.97
2022-10-07T15:35:44.729Z,101032.53
2022-10-07T15:38:13.910Z,101029.00
2022-10-07T15:40:54.708Z,101025.75
2022-10-07T15:43:22.873Z,101014.22
2022-10-07T15:45:51.279Z,101020.47
2022-10-07T15:48:23.078Z,101016.22
2022-10-07T15:50:52.072Z,101010.97
2022-10-07T15:53:21.982Z,101015.44
2022-10-07T15:55:50.691Z,101009.13
2022-10-07T15:58:18.947Z,101006.38
2022-10-07T16:00:57.061Z,101009.97
2022-10-07T16:03:25.256Z,101005.28
2022-10-07T16:05:56.785Z,101002.66
2022-10-07T16:08:26.086Z,101007.72
2022-10-07T16:10:53.958Z,101002.53
2022-10-07T16:13:23.072Z,100998.84
2022-10-07T16:15:58.624Z,101007.28
2022-10-07T16:18:26.633Z,101000.81
2022-10-07T16:20:54.423Z,101006.00
2022-10-07T16:23:22.386Z,101002.91
2022-10-07T16:25:51.504Z,101007.94
2022-10-07T16:28:37.195Z,101004.03
2022-10-07T16:31:05.409Z,101005.31
2022-10-07T16:33:33.362Z,101007.91
2022-10-07T16:36:01.169Z,101000.41
2022-10-07T16:38:28.938Z,101001.38
2022-10-07T16:40:58.058Z,101012.06
2022-10-07T16:43:25.836Z,101007.75
2022-10-07T16:45:53.848Z,101004.44
2022-10-07T16:48:21.645Z,101005.66
2022-10-07T16:50:49.569Z,100999.13
2022-10-07T16:53:17.345Z,101001.16
2022-10-07T16:55:45.151Z,100998.78
2022-10-07T16:58:14.425Z,100994.41
2022-10-07T17:00:42.211Z,100996.97
2022-10-07T17:03:10.111Z,100999.84
2022-10-07T17:05:39.144Z,100996.47
2022-10-07T17:08:06.942Z,101004.66
2022-10-07T17:10:34.873Z,100998.97
2022-10-07T17:13:04.049Z,100994.97
2022-10-07T17:15:33.240Z,100993.75
2022-10-07T17:18:01.006Z,100994.88
2022-10-07T17:20:29.034Z,100986.13
2022-10-07T17:22:56.948Z,100996.44
2022-10-07T17:25:24.718Z,100993.84
2022-10-07T17:27:53.078Z,100984.00
2022-10-07T17:30:20.888Z,100998.88
2022-10-07T17:32:51.712Z,100986.00
2022-10-07T17:35:19.798Z,100992.63
2022-10-07T17:37:49.073Z,100993.84
2022-10-07T17:40:16.950Z,100986.94
2022-10-07T17:42:45.425Z,100987.59
2022-10-07T17:45:13.630Z,100990.84
2022-10-07T17:47:41.586Z,100991.47
2022-10-07T17:50:12.076Z,100992.78
2022-10-07T17:52:40.063Z,100990.06
2022-10-07T17:55:08.413Z,100991.06
2022-10-07T17:57:36.217Z,100985.88
2022-10-07T18:00:06.097Z,100984.13
2022-10-07T18:02:34.007Z,100991.06
2022-10-07T18:05:02.062Z,100986.16
2022-10-07T18:07:31.337Z,100981.28
2022-10-07T18:09:59.168Z,100988.47
2022-10-07T18:12:44.566Z,100982.22
2022-10-07T18:15:21.987Z,100982.78
2022-10-07T18:17:51.358Z,100987.63
2022-10-07T18:20:19.733Z,100989.66
2022-10-07T18:22:48.861Z,100986.75
2022-10-07T18:25:16.698Z,100980.31
2022-10-07T18:27:44.779Z,100980.75
2022-10-07T18:30:13.202Z,100983.50
2022-10-07T18:32:41.073Z,100981.25
2022-10-07T18:35:12.046Z,100978.56
2022-10-07T18:37:39.875Z,100984.66
2022-10-07T18:40:09.814Z,100985.38
2022-10-07T18:42:38.568Z,100985.75
2022-10-07T18:45:06.663Z,100985.75
2022-10-07T18:47:34.526Z,100983.81
2022-10-07T18:50:02.497Z,100985.50
2022-10-07T18:52:30.362Z,100985.56
2022-10-07T18:55:00.941Z,100986.34
2022-10-07T18:57:30.096Z,100983.09
2022-10-07T18:59:57.889Z,100979.34
2022-10-07T19:02:25.722Z,100973.41
2022-10-07T19:04:59.702Z,100985.09
2022-10-07T19:07:28.871Z,100984.09
2022-10-07T19:09:56.687Z,100981.19
2022-10-07T19:12:41.855Z,100982.00
2022-10-07T19:15:11.579Z,100979.91
2022-10-07T19:17:39.333Z,100979.19
2022-10-07T19:20:07.560Z,100975.56
2022-10-07T19:22:35.356Z,100981.38
2022-10-07T19:25:20.774Z,100977.16
2022-10-07T19:27:49.210Z,100976.28
2022-10-07T19:30:18.733Z,100972.75
2022-10-07T19:32:46.521Z,100966.06
2022-10-07T19:35:14.456Z,100964.06
2022-10-07T19:37:42.429Z,100969.94
2022-10-07T19:40:11.231Z,100969.16
2022-10-07T19:42:39.054Z,100961.53
2022-10-07T19:45:09.135Z,100965.19
2022-10-07T19:47:38.291Z,100968.25
2022-10-07T19:50:06.543Z,100963.97
2022-10-07T19:52:35.294Z,100962.34
2022-10-07T19:55:03.041Z,100957.47
2022-10-07T19:57:31.372Z,100959.69
2022-10-07T19:59:59.189Z,100964.94
2022-10-07T20:02:27.031Z,100968.50
2022-10-07T20:04:57.252Z,100966.63
2022-10-07T20:07:25.163Z,100957.06
2022-10-07T20:09:52.954Z,100961.16
2022-10-07T20:12:23.225Z,100962.78
2022-10-07T20:14:51.166Z,100956.50
2022-10-07T20:17:20.236Z,100952.97
2022-10-07T20:19:48.176Z,100952.47
2022-10-07T20:22:17.298Z,100953.81
2022-10-07T20:24:45.118Z,100954.06
2022-10-07T20:27:12.943Z,100954.41
2022-10-07T20:29:57.031Z,100959.94
2022-10-07T20:32:25.018Z,100961.06
2022-10-07T20:34:52.884Z,100950.09
2022-10-07T20:37:22.027Z,100955.84
2022-10-07T20:40:07.094Z,100953.41
2022-10-07T20:42:35.120Z,100947.47
2022-10-07T20:45:03.426Z,100953.19
2022-10-07T20:47:32.444Z,100951.81
2022-10-07T20:50:02.396Z,100948.53
2022-10-07T20:52:32.419Z,100953.50
2022-10-07T20:55:00.463Z,100950.78
2022-10-07T20:57:33.169Z,100947.53
2022-10-07T21:00:01.166Z,100955.44
2022-10-07T21:02:29.159Z,100954.63
2022-10-07T21:04:59.048Z,100948.63
2022-10-07T21:07:26.892Z,100948.38
2022-10-07T21:09:58.056Z,100947.03
2022-10-07T21:12:26.205Z,100943.81
2022-10-07T21:14:55.126Z,100945.97
2022-10-07T21:17:26.023Z,100940.47
2022-10-07T21:19:55.095Z,100941.63
2022-10-07T21:22:22.862Z,100935.09
2022-10-07T21:24:50.932Z,100941.63
2022-10-07T21:27:20.126Z,100940.28
2022-10-07T21:29:48.847Z,100931.81
2022-10-07T21:32:16.677Z,100939.44
2022-10-07T21:34:44.574Z,100932.88
2022-10-07T21:37:12.401Z,100933.72
2022-10-07T21:39:40.199Z,100930.72
2022-10-07T21:42:08.114Z,100935.38
2022-10-07T21:44:37.283Z,100920.94
2022-10-07T21:47:05.232Z,100921.47
2022-10-07T21:49:33.070Z,100926.38
2022-10-07T21:52:00.836Z,100922.28
2022-10-07T21:54:30.188Z,100924.47
2022-10-07T21:56:57.996Z,100920.66
2022-10-07T21:59:25.873Z,100921.75
2022-10-07T22:01:55.240Z,100916.56
2022-10-07T22:04:24.331Z,100914.41
2022-10-07T22:07:09.590Z,100923.66
2022-10-07T22:09:38.453Z,100912.50
2022-10-07T22:12:06.417Z,100917.13
2022-10-07T22:14:34.207Z,100910.03
2022-10-07T22:17:03.755Z,100901.88
2022-10-07T22:19:31.632Z,100899.41
2022-10-07T22:21:59.590Z,100900.22
2022-10-07T22:24:27.385Z,100897.50
2022-10-07T22:26:55.729Z,100899.13
2022-10-07T22:29:23.613Z,100893.13
2022-10-07T22:31:51.453Z,100899.94
2022-10-07T22:34:38.325Z,100901.81
2022-10-07T22:37:06.263Z,100896.09
2022-10-07T22:39:34.194Z,100896.09
2022-10-07T22:42:02.261Z,100888.72
2022-10-07T22:44:31.540Z,100892.84
2022-10-07T22:47:00.182Z,100880.88
2022-10-07T22:49:30.371Z,100876.78
2022-10-07T22:51:59.673Z,100880.56
2022-10-07T22:54:28.197Z,100876.22
2022-10-07T22:56:55.997Z,100882.19
2022-10-07T22:59:23.816Z,100874.03
2022-10-07T23:01:51.755Z,100878.97
2022-10-07T23:04:21.321Z,100864.78
2022-10-07T23:06:50.762Z,100855.75
2022-10-07T23:09:18.583Z,100863.09
2022-10-07T23:11:46.691Z,100868.03
2022-10-07T23:14:14.705Z,100868.84
2022-10-07T23:16:44.135Z,100865.84
2022-10-07T23:19:11.948Z,100862.53
2022-10-07T23:21:39.724Z,100863.91
2022-10-07T23:24:09.919Z,100866.53
2022-10-07T23:26:38.669Z,100861.09
2022-10-07T23:29:07.426Z,100866.25
2022-10-07T23:31:35.295Z,100856.13
2022-10-07T23:34:03.289Z,100859.34
2022-10-07T23:36:31.352Z,100857.34
2022-10-07T23:38:59.964Z,100850.75
2022-10-07T23:41:29.798Z,100865.19
2022-10-07T23:43:58.470Z,100849.03
2022-10-07T23:46:27.124Z,100843.84
2022-10-07T23:48:55.828Z,100846.22
2022-10-07T23:51:24.858Z,100844.84
2022-10-07T23:53:52.826Z,100843.03
2022-10-07T23:56:20.651Z,100841.38
2022-10-07T23:58:49.790Z,100842.44
